Sunday, June 17, 2018, 10:08 PM EDT
Back to Local

KHYA, Hyannis Barnstable Boardmn

Location: West Yarmouth, MA, United States Lat: 41.667
Local Time: 10:08 PM EDT ( 2:08 GMT) Lon: -70.267
Time Zone: US/Eastern Elev: 52 ft

Show me the last for .
Show Coded

Time T Td Feel RH Dir Speed Gust Alt SLP Vis Weather Sky Remarks
2018-06-17 20:56 68 60 - 75 210° 7 - 30.08 30.08 10 CLR None
2018-06-17 19:56 70 59 - 68 200° 6 - 30.08 30.09 10 CLR 6-hr Min Temp (8pm): 69.1°F
6-hr Max Temp (8pm): 81.0°F
2018-06-17 18:56 72 57 76 59 200° 8 - 30.08 30.09 10 CLR None
2018-06-17 17:56 72 56 76 57 200° 10 - 30.08 30.08 10 CLR None
2018-06-17 16:56 73 57 77 57 190° 10 - 30.08 30.08 10 CLR None
2018-06-17 15:56 79 55 79 43 170° 9 - 30.08 30.08 10 CLR None
2018-06-17 14:56 79 54 79 42 Variable 6 - 30.07 30.07 10 CLR None
2018-06-17 13:56 78 56 79 46 130° 7 - 30.06 30.06 10 CLR 6-hr Min Temp (2pm): 75.0°F
6-hr Max Temp (2pm): 82.9°F
2018-06-17 12:56 78 59 80 51 160° 6 - 30.07 30.07 10 CLR None
2018-06-17 11:56 81 56 81 42 50° 5 - 30.08 30.08 10 CLR None
2018-06-17 10:56 80 56 80 43 360° 8 - 30.08 30.08 10 CLR None
2018-06-17 09:56 78 56 79 46 20° 6 - 30.06 30.06 10 CLR None
2018-06-17 08:56 76 56 78 50 10° 8 - 30.05 30.05 10 CLR None
2018-06-17 07:56 75 58 78 55 360° 5 - 30.04 30.04 10 CLR 6-hr Min Temp (8am): 55.0°F
6-hr Max Temp (8am): 75.0°F
2018-06-17 06:56 66 59 - 78 - Calm - 30.03 30.03 10 CLR None
2018-06-17 05:56 56 54 - 93 - Calm - 30.02 30.02 10 CLR None
2018-06-17 04:56 56 54 - 93 - Calm - 30.01 30.01 10 CLR None
2018-06-17 03:56 57 54 - 89 - Calm - 29.99 29.99 10 CLR None
2018-06-17 02:56 57 54 - 89 - Calm - 29.98 29.98 10 CLR None
2018-06-17 01:56 60 55 - 83 - Calm - 29.98 29.98 10 CLR 6-hr Min Temp (2am): 59.0°F
6-hr Max Temp (2am): 68.0°F
2018-06-17 00:56 62 56 - 80 240° 6 - 29.99 29.99 10 CLR 24-hr Min Temp (1am): 57.0°F
24-hr Max Temp (1am): 80.1°F
2018-06-16 23:56 63 56 - 77 250° 6 - 30.00 30.00 10 CLR None
2018-06-16 22:56 63 56 - 77 240° 5 - 29.99 29.99 10 CLR None

Support USWX by starting your Amazon purchase here.